createdAt,value
2018-03-25T00:00:59.330Z,983.38
2018-03-25T00:01:59.356Z,983.41
2018-03-25T00:02:59.383Z,983.39
2018-03-25T00:03:59.410Z,983.41
2018-03-25T00:04:59.437Z,983.46
2018-03-25T00:05:59.461Z,983.42
2018-03-25T00:06:59.487Z,983.44
2018-03-25T00:07:59.514Z,983.36
2018-03-25T00:08:59.540Z,983.45
2018-03-25T00:09:59.568Z,983.43
2018-03-25T00:10:59.593Z,983.40
2018-03-25T00:11:59.621Z,983.43
2018-03-25T00:12:59.648Z,983.45
2018-03-25T00:13:59.671Z,983.45
2018-03-25T00:14:59.697Z,983.46
2018-03-25T00:15:59.724Z,983.46
2018-03-25T00:16:59.750Z,983.47
2018-03-25T00:17:59.774Z,983.43
2018-03-25T00:18:59.801Z,983.48
2018-03-25T00:19:59.829Z,983.50
2018-03-25T00:20:59.853Z,983.47
2018-03-25T00:21:59.881Z,983.45
2018-03-25T00:22:59.908Z,983.51
2018-03-25T00:23:59.932Z,983.45
2018-03-25T00:24:59.958Z,983.44
2018-03-25T00:25:59.985Z,983.54
2018-03-25T00:27:00.012Z,983.47
2018-03-25T00:28:00.038Z,983.49
2018-03-25T00:29:00.064Z,983.50
2018-03-25T00:30:00.093Z,983.50
2018-03-25T00:31:00.117Z,983.43
2018-03-25T00:32:00.143Z,983.52
2018-03-25T00:33:00.168Z,983.49
2018-03-25T00:34:00.195Z,983.50
2018-03-25T00:35:00.223Z,983.54
2018-03-25T00:36:00.246Z,983.52
2018-03-25T00:37:00.272Z,983.52
2018-03-25T00:38:00.299Z,983.56
2018-03-25T00:39:00.328Z,983.58
2018-03-25T00:40:00.350Z,983.54
2018-03-25T00:41:00.377Z,983.55
2018-03-25T00:42:00.402Z,983.51
2018-03-25T00:43:00.429Z,983.56
2018-03-25T00:44:00.457Z,983.52
2018-03-25T00:45:00.480Z,983.54
2018-03-25T00:46:00.507Z,983.57
2018-03-25T00:47:00.534Z,983.50
2018-03-25T00:48:00.560Z,983.59
2018-03-25T00:49:00.585Z,983.55
2018-03-25T00:50:00.611Z,983.56
2018-03-25T00:51:00.637Z,983.54
2018-03-25T00:52:00.662Z,983.53
2018-03-25T00:53:00.688Z,983.53
2018-03-25T00:54:00.714Z,983.53
2018-03-25T00:55:00.740Z,983.61
2018-03-25T00:56:00.766Z,983.58
2018-03-25T00:57:00.792Z,983.59
2018-03-25T00:58:00.818Z,983.58
2018-03-25T00:59:00.844Z,983.60
2018-03-25T01:00:00.870Z,983.62
2018-03-25T01:01:00.896Z,983.55
2018-03-25T01:02:00.933Z,983.63
2018-03-25T01:03:00.949Z,983.60
2018-03-25T01:04:00.976Z,983.59
2018-03-25T01:05:00.998Z,983.62
2018-03-25T01:06:01.025Z,983.63
2018-03-25T01:07:01.051Z,983.63
2018-03-25T01:08:01.077Z,983.65
2018-03-25T01:09:01.103Z,983.65
2018-03-25T01:10:01.128Z,983.65
2018-03-25T01:11:01.153Z,983.65
2018-03-25T01:12:01.180Z,983.70
2018-03-25T01:13:01.205Z,983.65
2018-03-25T01:14:01.231Z,983.65
2018-03-25T01:15:01.258Z,983.68
2018-03-25T01:16:01.284Z,983.66
2018-03-25T01:17:01.310Z,983.69
2018-03-25T01:18:01.336Z,983.66
2018-03-25T01:19:01.360Z,983.61
2018-03-25T01:20:01.385Z,983.64
2018-03-25T01:21:01.411Z,983.64
2018-03-25T01:22:01.437Z,983.62
2018-03-25T01:23:01.463Z,983.63
2018-03-25T01:24:01.490Z,983.68
2018-03-25T01:25:01.516Z,983.66
2018-03-25T01:26:01.541Z,983.68
2018-03-25T01:27:01.566Z,983.69
2018-03-25T01:28:01.595Z,983.70
2018-03-25T01:29:01.618Z,983.72
2018-03-25T01:30:01.643Z,983.73
2018-03-25T01:31:01.668Z,983.72
2018-03-25T01:32:01.695Z,983.74
2018-03-25T01:33:01.719Z,983.66
2018-03-25T01:34:01.746Z,983.71
2018-03-25T01:35:01.773Z,983.74
2018-03-25T01:36:01.799Z,983.72
2018-03-25T01:37:01.822Z,983.68
2018-03-25T01:38:01.849Z,983.66
2018-03-25T01:39:01.875Z,983.71
2018-03-25T01:40:01.901Z,983.71
2018-03-25T01:41:01.926Z,983.71
2018-03-25T01:42:01.952Z,983.70
2018-03-25T01:43:01.981Z,983.68
2018-03-25T01:44:02.002Z,983.68
2018-03-25T01:45:02.026Z,983.66
2018-03-25T01:46:02.053Z,983.67
2018-03-25T01:47:02.080Z,983.67
2018-03-25T01:48:02.105Z,983.67
2018-03-25T01:49:02.138Z,983.67
2018-03-25T01:50:02.156Z,983.70
2018-03-25T01:51:02.182Z,983.68
2018-03-25T01:52:02.209Z,983.69
2018-03-25T01:53:02.237Z,983.65
2018-03-25T01:54:02.260Z,983.67
2018-03-25T01:55:02.285Z,983.66
2018-03-25T01:56:02.311Z,983.65
2018-03-25T01:57:02.334Z,983.68
2018-03-25T01:58:02.366Z,983.69
2018-03-25T01:59:02.386Z,983.65
2018-03-25T02:00:02.412Z,983.67
2018-03-25T02:01:02.444Z,983.73
2018-03-25T02:02:02.462Z,983.70
2018-03-25T02:03:02.488Z,983.70
2018-03-25T02:04:02.514Z,983.71
2018-03-25T02:05:02.540Z,983.67
2018-03-25T02:06:02.570Z,983.66
2018-03-25T02:07:02.590Z,983.66
2018-03-25T02:08:02.614Z,983.63
2018-03-25T02:09:02.642Z,983.62
2018-03-25T02:10:02.665Z,983.64
2018-03-25T02:11:02.691Z,983.65
2018-03-25T02:12:02.717Z,983.63
2018-03-25T02:13:02.742Z,983.65
2018-03-25T02:14:02.768Z,983.72
2018-03-25T02:15:02.793Z,983.70
2018-03-25T02:16:02.819Z,983.67
2018-03-25T02:17:02.844Z,983.66
2018-03-25T02:18:02.868Z,983.67
2018-03-25T02:19:02.895Z,983.72
2018-03-25T02:20:02.923Z,983.68
2018-03-25T02:21:02.945Z,983.72
2018-03-25T02:22:02.970Z,983.71
2018-03-25T02:23:02.996Z,983.64
2018-03-25T02:24:03.022Z,983.64
2018-03-25T02:25:03.047Z,983.69
2018-03-25T02:26:03.071Z,983.69
2018-03-25T02:27:03.098Z,983.69
2018-03-25T02:28:03.122Z,983.70
2018-03-25T02:29:03.146Z,983.68
2018-03-25T02:30:03.174Z,983.69
2018-03-25T02:31:03.203Z,983.68
2018-03-25T02:32:03.225Z,983.69
2018-03-25T02:33:03.249Z,983.69
2018-03-25T02:34:03.276Z,983.74
2018-03-25T02:35:03.302Z,983.76
2018-03-25T02:36:03.328Z,983.80
2018-03-25T02:37:03.360Z,983.70
2018-03-25T02:38:03.379Z,983.76
2018-03-25T02:39:03.400Z,983.75
2018-03-25T02:40:03.426Z,983.78
2018-03-25T02:41:03.452Z,983.78
2018-03-25T02:42:03.479Z,983.79
2018-03-25T02:43:03.502Z,983.79
2018-03-25T02:44:03.528Z,983.75
2018-03-25T02:45:03.556Z,983.74
2018-03-25T02:46:03.578Z,983.69
2018-03-25T02:47:03.617Z,983.68
2018-03-25T02:48:03.628Z,983.73
2018-03-25T02:49:03.652Z,983.74
2018-03-25T02:50:03.682Z,983.72
2018-03-25T02:51:03.704Z,983.73
2018-03-25T02:52:03.730Z,983.77
2018-03-25T02:53:03.753Z,983.74
2018-03-25T02:54:03.784Z,983.79
2018-03-25T02:55:03.804Z,983.77
2018-03-25T02:56:03.832Z,983.81
2018-03-25T02:57:03.852Z,983.79
2018-03-25T02:58:03.877Z,983.82
2018-03-25T02:59:03.906Z,983.86
2018-03-25T03:00:03.928Z,983.88
2018-03-25T03:01:03.954Z,983.87
2018-03-25T03:02:03.979Z,983.85
2018-03-25T03:03:04.005Z,983.90
2018-03-25T03:04:04.031Z,983.92
2018-03-25T03:05:04.054Z,983.94
2018-03-25T03:06:04.080Z,983.92
2018-03-25T03:07:04.107Z,983.95
2018-03-25T03:08:04.130Z,983.97
2018-03-25T03:09:04.155Z,984.00
2018-03-25T03:10:04.189Z,983.91
2018-03-25T03:11:04.205Z,983.93
2018-03-25T03:12:04.231Z,983.89
2018-03-25T03:13:04.258Z,983.93
2018-03-25T03:14:04.280Z,983.94
2018-03-25T03:15:04.310Z,983.93
2018-03-25T03:16:04.335Z,983.92
2018-03-25T03:17:04.356Z,983.95
2018-03-25T03:18:04.380Z,983.92
2018-03-25T03:19:04.407Z,983.93
2018-03-25T03:20:04.436Z,983.98
2018-03-25T03:21:04.456Z,983.97
2018-03-25T03:22:04.480Z,983.97
2018-03-25T03:23:04.504Z,984.05
2018-03-25T03:24:04.531Z,984.02
2018-03-25T03:25:04.554Z,984.03
2018-03-25T03:26:04.581Z,984.00
2018-03-25T03:27:04.606Z,984.01
2018-03-25T03:28:04.631Z,984.06
2018-03-25T03:29:04.656Z,984.06
2018-03-25T03:30:04.681Z,984.06
2018-03-25T03:31:04.707Z,984.12
2018-03-25T03:32:04.730Z,984.19
2018-03-25T03:33:04.756Z,984.13
2018-03-25T03:34:04.782Z,984.20
2018-03-25T03:35:04.806Z,984.21
2018-03-25T03:36:04.832Z,984.20
2018-03-25T03:37:04.855Z,984.18
2018-03-25T03:38:04.881Z,984.19
2018-03-25T03:39:04.912Z,984.18
2018-03-25T03:40:04.931Z,984.22
2018-03-25T03:41:04.955Z,984.23
2018-03-25T03:42:04.981Z,984.26
2018-03-25T03:43:05.006Z,984.29
2018-03-25T03:44:05.031Z,984.27
2018-03-25T03:45:05.089Z,984.26
2018-03-25T03:46:05.081Z,984.28
2018-03-25T03:47:05.106Z,984.30
2018-03-25T03:48:05.131Z,984.34
2018-03-25T03:49:05.158Z,984.35
2018-03-25T03:50:05.179Z,984.33
2018-03-25T03:51:05.207Z,984.37
2018-03-25T03:52:05.231Z,984.39
2018-03-25T03:53:05.259Z,984.37
2018-03-25T03:54:05.280Z,984.39
2018-03-25T03:55:05.305Z,984.40
2018-03-25T03:56:05.329Z,984.41
2018-03-25T03:57:05.355Z,984.42
2018-03-25T03:58:05.382Z,984.39
2018-03-25T03:59:05.405Z,984.42
2018-03-25T04:00:05.431Z,984.40
2018-03-25T04:01:05.454Z,984.41
2018-03-25T04:02:05.480Z,984.39
2018-03-25T04:03:05.505Z,984.43
2018-03-25T04:04:05.530Z,984.44
2018-03-25T04:05:05.554Z,984.43
2018-03-25T04:06:05.579Z,984.45
2018-03-25T04:07:05.606Z,984.45
2018-03-25T04:08:05.630Z,984.47
2018-03-25T04:09:05.709Z,984.47
2018-03-25T04:10:05.681Z,984.46
2018-03-25T04:11:05.703Z,984.50
2018-03-25T04:12:05.729Z,984.47
2018-03-25T04:13:05.752Z,984.49
2018-03-25T04:14:05.777Z,984.46
2018-03-25T04:15:05.804Z,984.54
2018-03-25T04:16:05.834Z,984.54
2018-03-25T04:17:05.852Z,984.52
2018-03-25T04:18:05.879Z,984.55
2018-03-25T04:19:05.904Z,984.53
2018-03-25T04:20:05.927Z,984.55
2018-03-25T04:21:05.954Z,984.55
2018-03-25T04:22:05.977Z,984.52
2018-03-25T04:23:06.003Z,984.54
2018-03-25T04:24:06.040Z,984.53
2018-03-25T04:25:06.053Z,984.54
2018-03-25T04:26:06.077Z,984.57
2018-03-25T04:27:06.101Z,984.53
2018-03-25T04:28:06.126Z,984.52
2018-03-25T04:29:06.150Z,984.60
2018-03-25T04:30:06.187Z,984.57
2018-03-25T04:31:06.201Z,984.51
2018-03-25T04:32:06.226Z,984.55
2018-03-25T04:33:06.253Z,984.56
2018-03-25T04:34:06.275Z,984.60
2018-03-25T04:35:06.304Z,984.60
2018-03-25T04:36:06.323Z,984.63
2018-03-25T04:37:06.349Z,984.64
2018-03-25T04:38:06.374Z,984.62
2018-03-25T04:39:06.432Z,984.64
2018-03-25T04:40:06.424Z,984.63
2018-03-25T04:41:06.449Z,984.68
2018-03-25T04:42:06.475Z,984.69
2018-03-25T04:43:06.496Z,984.64
2018-03-25T04:44:06.521Z,984.75
2018-03-25T04:45:06.547Z,984.70
2018-03-25T04:46:06.572Z,984.72
2018-03-25T04:47:06.598Z,984.78
2018-03-25T04:48:06.624Z,984.76
2018-03-25T04:49:06.645Z,984.74
2018-03-25T04:50:06.670Z,984.77
2018-03-25T04:51:06.695Z,984.75
2018-03-25T04:52:06.722Z,984.75
2018-03-25T04:53:06.744Z,984.77
2018-03-25T04:54:06.769Z,984.70
2018-03-25T04:55:06.794Z,984.79
2018-03-25T04:56:06.870Z,984.77
2018-03-25T04:57:06.843Z,984.75
2018-03-25T04:58:06.868Z,984.79
2018-03-25T04:59:06.892Z,984.77
2018-03-25T05:00:06.917Z,984.83
2018-03-25T05:01:06.942Z,984.84
2018-03-25T05:02:06.966Z,984.86
2018-03-25T05:03:06.991Z,984.84
2018-03-25T05:04:07.015Z,984.86
2018-03-25T05:05:07.039Z,984.81
2018-03-25T05:06:07.065Z,984.84
2018-03-25T05:07:07.089Z,984.84
2018-03-25T05:08:07.115Z,984.87
2018-03-25T05:09:07.139Z,984.90
2018-03-25T05:10:07.165Z,984.90
2018-03-25T05:11:07.188Z,984.88
2018-03-25T05:12:07.212Z,984.88
2018-03-25T05:13:07.236Z,984.87
2018-03-25T05:14:07.262Z,984.93
2018-03-25T05:15:07.287Z,984.96
2018-03-25T05:16:07.312Z,985.00
2018-03-25T05:17:07.336Z,985.02
2018-03-25T05:18:07.361Z,985.00
2018-03-25T05:19:07.394Z,984.97
2018-03-25T05:20:07.416Z,985.01
2018-03-25T05:21:07.435Z,985.01
2018-03-25T05:22:07.460Z,985.01
2018-03-25T05:23:07.484Z,985.04
2018-03-25T05:24:07.508Z,985.05
2018-03-25T05:25:07.532Z,985.08
2018-03-25T05:26:07.558Z,985.01
2018-03-25T05:27:07.582Z,985.07
2018-03-25T05:28:07.607Z,985.11
2018-03-25T05:29:07.632Z,985.10
2018-03-25T05:30:07.656Z,985.11
2018-03-25T05:31:07.680Z,985.10
2018-03-25T05:32:07.705Z,985.14
2018-03-25T05:33:07.729Z,985.12
2018-03-25T05:34:07.794Z,985.09
2018-03-25T05:35:07.778Z,985.09
2018-03-25T05:36:07.805Z,985.11
2018-03-25T05:37:07.828Z,985.14
2018-03-25T05:38:07.853Z,985.15
2018-03-25T05:39:07.878Z,985.13
2018-03-25T05:40:07.902Z,985.10
2018-03-25T05:41:07.927Z,985.12
2018-03-25T05:42:07.950Z,985.15
2018-03-25T05:43:07.977Z,985.17
2018-03-25T05:44:08.001Z,985.15
2018-03-25T05:45:08.026Z,985.14
2018-03-25T05:46:08.050Z,985.12
2018-03-25T05:47:08.075Z,985.16
2018-03-25T05:48:08.100Z,985.21
2018-03-25T05:49:08.126Z,985.18
2018-03-25T05:50:08.148Z,985.24
2018-03-25T05:51:08.175Z,985.25
2018-03-25T05:52:08.199Z,985.27
2018-03-25T05:53:08.222Z,985.23
2018-03-25T05:54:08.247Z,985.29
2018-03-25T05:55:08.275Z,985.31
2018-03-25T05:56:08.296Z,985.33
2018-03-25T05:57:08.321Z,985.34
2018-03-25T05:58:08.348Z,985.39
2018-03-25T05:59:08.375Z,985.40
2018-03-25T06:00:08.395Z,985.42
2018-03-25T06:01:08.420Z,985.47
2018-03-25T06:02:08.445Z,985.46
2018-03-25T06:03:08.470Z,985.48
2018-03-25T06:04:08.495Z,985.47
2018-03-25T06:05:08.523Z,985.50
2018-03-25T06:06:08.545Z,985.55
2018-03-25T06:07:08.614Z,985.51
2018-03-25T06:08:08.594Z,985.55
2018-03-25T06:09:08.617Z,985.56
2018-03-25T06:10:08.643Z,985.59
2018-03-25T06:11:08.669Z,985.61
2018-03-25T06:12:08.695Z,985.54
2018-03-25T06:13:08.720Z,985.57
2018-03-25T06:14:08.746Z,985.61
2018-03-25T06:15:08.770Z,985.64
2018-03-25T06:16:08.792Z,985.58
2018-03-25T06:17:08.818Z,985.65
2018-03-25T06:18:08.844Z,985.71
2018-03-25T06:19:08.868Z,985.72
2018-03-25T06:20:08.893Z,985.74
2018-03-25T06:21:08.919Z,985.73
2018-03-25T06:22:08.945Z,985.75
2018-03-25T06:23:08.969Z,985.78
2018-03-25T06:24:08.994Z,985.83
2018-03-25T06:25:09.019Z,985.81
2018-03-25T06:26:09.044Z,985.83
2018-03-25T06:27:09.070Z,985.85
2018-03-25T06:28:09.095Z,985.83
2018-03-25T06:29:09.124Z,985.84
2018-03-25T06:30:09.146Z,985.84
2018-03-25T06:31:09.171Z,985.86
2018-03-25T06:32:09.198Z,985.84
2018-03-25T06:33:09.221Z,985.83
2018-03-25T06:34:09.250Z,985.84
2018-03-25T06:35:09.271Z,985.86
2018-03-25T06:36:09.299Z,985.88
2018-03-25T06:37:09.322Z,985.86
2018-03-25T06:38:09.348Z,985.85
2018-03-25T06:39:09.376Z,985.88
2018-03-25T06:40:09.399Z,985.90
2018-03-25T06:41:09.425Z,985.90
2018-03-25T06:42:09.451Z,985.90
2018-03-25T06:43:09.477Z,985.93
2018-03-25T06:44:09.503Z,985.91
2018-03-25T06:45:09.526Z,985.90
2018-03-25T06:46:09.553Z,985.94
2018-03-25T06:47:09.585Z,985.97
2018-03-25T06:48:09.613Z,985.97
2018-03-25T06:49:09.630Z,986.01
2018-03-25T06:50:09.656Z,986.00
2018-03-25T06:51:09.681Z,986.03
2018-03-25T06:52:09.709Z,985.99
2018-03-25T06:53:09.733Z,986.04
2018-03-25T06:54:09.765Z,986.00
2018-03-25T06:55:09.788Z,986.07
2018-03-25T06:56:09.813Z,986.05
2018-03-25T06:57:09.837Z,986.01
2018-03-25T06:58:09.864Z,986.03
2018-03-25T06:59:09.891Z,986.06
2018-03-25T07:00:09.917Z,986.05
2018-03-25T07:01:09.941Z,986.01
2018-03-25T07:02:09.969Z,986.02
2018-03-25T07:03:10.002Z,986.04
2018-03-25T07:04:10.022Z,986.01
2018-03-25T07:05:10.046Z,986.03
2018-03-25T07:06:10.073Z,986.09
2018-03-25T07:07:10.101Z,986.09
2018-03-25T07:08:10.128Z,986.12
2018-03-25T07:09:10.153Z,986.13
2018-03-25T07:10:10.180Z,986.12
2018-03-25T07:11:10.206Z,986.15
2018-03-25T07:12:10.233Z,986.15
2018-03-25T07:13:10.259Z,986.12
2018-03-25T07:14:10.287Z,986.13
2018-03-25T07:15:10.312Z,986.11
2018-03-25T07:16:10.338Z,986.13
2018-03-25T07:17:10.365Z,986.21
2018-03-25T07:18:10.393Z,986.15
2018-03-25T07:19:10.418Z,986.21
2018-03-25T07:20:10.447Z,986.18
2018-03-25T07:21:10.472Z,986.16
2018-03-25T07:22:10.498Z,986.17
2018-03-25T07:23:10.526Z,986.21
2018-03-25T07:24:10.553Z,986.21
2018-03-25T07:25:10.579Z,986.23
2018-03-25T07:26:10.607Z,986.23
2018-03-25T07:27:10.632Z,986.25
2018-03-25T07:28:10.661Z,986.28
2018-03-25T07:29:10.690Z,986.27
2018-03-25T07:30:10.718Z,986.34
2018-03-25T07:31:10.743Z,986.33
2018-03-25T07:32:10.770Z,986.34
2018-03-25T07:33:10.800Z,986.38
2018-03-25T07:34:10.824Z,986.38
2018-03-25T07:35:10.853Z,986.36
2018-03-25T07:36:10.880Z,986.38
2018-03-25T07:37:10.905Z,986.43
2018-03-25T07:38:10.933Z,986.44
2018-03-25T07:39:10.960Z,986.46
2018-03-25T07:40:10.994Z,986.47
2018-03-25T07:41:11.015Z,986.48
2018-03-25T07:42:11.046Z,986.45
2018-03-25T07:43:11.072Z,986.44
2018-03-25T07:44:11.100Z,986.51
2018-03-25T07:45:11.130Z,986.48
2018-03-25T07:46:11.155Z,986.52
2018-03-25T07:47:11.184Z,986.54
2018-03-25T07:48:11.215Z,986.50
2018-03-25T07:49:11.240Z,986.55
2018-03-25T07:50:11.328Z,986.53
2018-03-25T07:51:11.298Z,986.52
2018-03-25T07:52:11.326Z,986.55
2018-03-25T07:53:11.354Z,986.52
2018-03-25T07:54:11.382Z,986.54
2018-03-25T07:55:11.411Z,986.53
2018-03-25T07:56:11.440Z,986.52
2018-03-25T07:57:11.468Z,986.57
2018-03-25T07:58:11.499Z,986.60
2018-03-25T07:59:11.525Z,986.62
2018-03-25T08:00:11.557Z,986.58
2018-03-25T08:01:11.585Z,986.62
2018-03-25T08:02:11.616Z,986.60
2018-03-25T08:03:11.648Z,986.61
2018-03-25T08:04:11.673Z,986.64
2018-03-25T08:05:11.702Z,986.64
2018-03-25T08:06:11.731Z,986.63
2018-03-25T08:07:11.761Z,986.60
2018-03-25T08:08:11.818Z,986.58
2018-03-25T08:09:11.840Z,986.59
2018-03-25T08:10:11.851Z,986.58
2018-03-25T08:11:11.880Z,986.58
2018-03-25T08:12:11.911Z,986.60
2018-03-25T08:13:11.940Z,986.62
2018-03-25T08:14:11.972Z,986.63
2018-03-25T08:15:12.002Z,986.59
2018-03-25T08:16:12.072Z,986.58
2018-03-25T08:17:12.062Z,986.58
2018-03-25T08:18:12.094Z,986.59
2018-03-25T08:19:12.125Z,986.59
2018-03-25T08:20:12.156Z,986.58
2018-03-25T08:21:12.185Z,986.66
2018-03-25T08:22:12.217Z,986.65
2018-03-25T08:23:12.248Z,986.68
2018-03-25T08:24:12.279Z,986.70
2018-03-25T08:25:12.309Z,986.69
2018-03-25T08:26:12.342Z,986.70
2018-03-25T08:27:12.372Z,986.72
2018-03-25T08:28:12.404Z,986.75
2018-03-25T08:29:12.435Z,986.67
2018-03-25T08:30:12.468Z,986.69
2018-03-25T08:31:12.500Z,986.65
2018-03-25T08:32:12.531Z,986.66
2018-03-25T08:33:12.562Z,986.67
2018-03-25T08:34:12.598Z,986.71
2018-03-25T08:35:12.629Z,986.69
2018-03-25T08:36:12.683Z,986.68
2018-03-25T08:37:12.694Z,986.64
2018-03-25T08:38:12.726Z,986.67
2018-03-25T08:39:12.756Z,986.69
2018-03-25T08:40:12.797Z,986.64
2018-03-25T08:41:12.829Z,986.62
2018-03-25T08:42:12.854Z,986.66
2018-03-25T08:43:12.889Z,986.65
2018-03-25T08:44:12.922Z,986.67
2018-03-25T08:45:12.953Z,986.62
2018-03-25T08:46:12.987Z,986.67
2018-03-25T08:47:13.020Z,986.66
2018-03-25T08:48:13.053Z,986.68
2018-03-25T08:49:13.086Z,986.66
2018-03-25T08:50:13.120Z,986.62
2018-03-25T08:51:13.152Z,986.65
2018-03-25T08:52:13.189Z,986.63
2018-03-25T08:53:13.219Z,986.66
2018-03-25T08:54:13.254Z,986.71
2018-03-25T08:55:13.288Z,986.68
2018-03-25T08:56:13.321Z,986.67
2018-03-25T08:57:13.356Z,986.67
2018-03-25T08:58:13.389Z,986.69
2018-03-25T08:59:13.425Z,986.67
2018-03-25T09:00:13.459Z,986.64
2018-03-25T09:01:13.492Z,986.62
2018-03-25T09:02:13.530Z,986.66
2018-03-25T09:03:13.563Z,986.65
2018-03-25T09:04:13.599Z,986.70
2018-03-25T09:05:13.636Z,986.76
2018-03-25T09:06:13.672Z,986.74
2018-03-25T09:07:13.709Z,986.82
2018-03-25T09:08:13.746Z,986.82
2018-03-25T09:09:13.783Z,986.84
2018-03-25T09:10:13.819Z,986.82
2018-03-25T09:11:13.859Z,986.86
2018-03-25T09:12:13.897Z,986.85
2018-03-25T09:13:13.939Z,986.82
2018-03-25T09:14:13.974Z,986.84
2018-03-25T09:15:14.014Z,986.85
2018-03-25T09:16:14.052Z,986.91
2018-03-25T09:17:14.090Z,986.93
2018-03-25T09:18:14.131Z,986.93
2018-03-25T09:19:14.174Z,986.92
2018-03-25T09:20:14.218Z,986.96
2018-03-25T09:21:14.250Z,987.01
2018-03-25T09:22:14.293Z,986.98
2018-03-25T09:23:14.337Z,987.04
2018-03-25T09:24:14.375Z,987.02
2018-03-25T09:25:14.415Z,986.97
2018-03-25T09:26:14.455Z,987.10
2018-03-25T09:27:14.497Z,987.08
2018-03-25T09:28:14.539Z,987.03
2018-03-25T09:29:14.581Z,987.03
2018-03-25T09:30:14.648Z,986.86
2018-03-25T09:31:14.666Z,986.97
2018-03-25T09:32:14.708Z,987.07
2018-03-25T09:33:14.752Z,987.04
2018-03-25T09:34:14.791Z,987.08
2018-03-25T09:35:14.835Z,987.16
2018-03-25T09:36:14.877Z,987.10
2018-03-25T09:37:14.956Z,987.13
2018-03-25T09:38:14.961Z,987.13
2018-03-25T09:39:15.003Z,987.16
2018-03-25T09:40:15.047Z,987.16
2018-03-25T09:41:15.091Z,987.18
2018-03-25T09:42:15.132Z,987.25
2018-03-25T09:43:15.175Z,987.26
2018-03-25T09:44:15.218Z,987.27
2018-03-25T09:45:15.260Z,987.32
2018-03-25T09:46:15.305Z,987.35
2018-03-25T09:47:15.347Z,987.31
2018-03-25T09:48:15.391Z,987.29
2018-03-25T09:49:15.436Z,987.29
2018-03-25T09:50:15.479Z,987.34
2018-03-25T09:51:15.525Z,987.41
2018-03-25T09:52:15.569Z,987.36
2018-03-25T09:53:15.613Z,987.39
2018-03-25T09:54:15.658Z,987.40
2018-03-25T09:55:15.703Z,987.33
2018-03-25T09:56:15.747Z,987.37
2018-03-25T09:57:15.792Z,987.33
2018-03-25T09:58:15.839Z,987.43
2018-03-25T09:59:15.884Z,987.45
2018-03-25T10:00:15.929Z,987.49
2018-03-25T10:01:15.974Z,987.40
2018-03-25T10:02:16.020Z,987.42
2018-03-25T10:03:16.066Z,987.43
2018-03-25T10:04:16.111Z,987.47
2018-03-25T10:05:16.156Z,987.42
2018-03-25T10:06:16.202Z,987.47
2018-03-25T10:07:16.251Z,987.48
2018-03-25T10:08:16.296Z,987.50
2018-03-25T10:09:16.342Z,987.51
2018-03-25T10:10:16.388Z,987.50
2018-03-25T10:11:16.431Z,987.52
2018-03-25T10:12:16.478Z,987.55
2018-03-25T10:13:16.523Z,987.55
2018-03-25T10:14:16.569Z,987.58
2018-03-25T10:15:16.617Z,987.64
2018-03-25T10:16:16.664Z,987.62
2018-03-25T10:17:16.711Z,987.62
2018-03-25T10:18:16.755Z,987.69
2018-03-25T10:19:16.803Z,987.69
2018-03-25T10:20:16.848Z,987.69
2018-03-25T10:21:16.895Z,987.72
2018-03-25T10:22:16.942Z,987.71
2018-03-25T10:23:16.990Z,987.78
2018-03-25T10:24:17.036Z,987.70
2018-03-25T10:25:17.086Z,987.65
2018-03-25T10:26:17.130Z,987.68
2018-03-25T10:27:17.178Z,987.68
2018-03-25T10:28:17.234Z,987.70
2018-03-25T10:29:17.279Z,987.69
2018-03-25T10:30:17.321Z,987.78
2018-03-25T10:31:17.368Z,987.83
2018-03-25T10:32:17.416Z,987.80
2018-03-25T10:33:17.462Z,987.86
2018-03-25T10:34:17.509Z,987.88
2018-03-25T10:35:17.559Z,987.88
2018-03-25T10:36:17.607Z,987.76
2018-03-25T10:37:17.654Z,987.80
2018-03-25T10:38:17.703Z,987.89
2018-03-25T10:39:17.756Z,987.91
2018-03-25T10:40:17.798Z,987.93
2018-03-25T10:41:17.848Z,987.78
2018-03-25T10:42:17.895Z,987.79
2018-03-25T10:43:17.944Z,987.89
2018-03-25T10:44:17.992Z,987.85
2018-03-25T10:45:18.040Z,987.86
2018-03-25T10:46:18.089Z,987.88
2018-03-25T10:47:18.137Z,987.94
2018-03-25T10:48:18.184Z,987.97
2018-03-25T10:49:18.233Z,987.99
2018-03-25T10:50:18.282Z,987.97
2018-03-25T10:51:18.331Z,988.02
2018-03-25T10:52:18.380Z,988.02
2018-03-25T10:53:18.428Z,988.04
2018-03-25T10:54:18.476Z,988.04
2018-03-25T10:55:18.526Z,988.05
2018-03-25T10:56:18.576Z,988.04
2018-03-25T10:57:18.625Z,988.02
2018-03-25T10:58:18.673Z,988.05
2018-03-25T10:59:18.722Z,988.07
2018-03-25T11:00:18.772Z,988.15
2018-03-25T11:01:18.819Z,988.15
2018-03-25T11:02:18.878Z,988.10
2018-03-25T11:03:18.920Z,988.11
2018-03-25T11:04:18.969Z,988.17
2018-03-25T11:05:19.024Z,988.14
2018-03-25T11:06:19.069Z,988.15
2018-03-25T11:07:19.118Z,988.21
2018-03-25T11:08:19.167Z,988.26
2018-03-25T11:09:19.216Z,988.17
2018-03-25T11:10:19.270Z,988.20
2018-03-25T11:11:19.319Z,988.19
2018-03-25T11:12:19.369Z,988.16
2018-03-25T11:13:19.422Z,988.24
2018-03-25T11:14:19.471Z,988.23
2018-03-25T11:15:19.521Z,988.18
2018-03-25T11:16:19.570Z,988.15
2018-03-25T11:17:19.650Z,988.20
2018-03-25T11:18:19.671Z,988.21
2018-03-25T11:19:19.722Z,988.19
2018-03-25T11:20:19.773Z,988.09
2018-03-25T11:21:19.822Z,988.28
2018-03-25T11:22:19.874Z,988.29
2018-03-25T11:23:19.924Z,988.24
2018-03-25T11:24:19.974Z,988.09
2018-03-25T11:25:20.026Z,988.13
2018-03-25T11:26:20.077Z,988.11
2018-03-25T11:27:20.128Z,988.07
2018-03-25T11:28:20.182Z,988.11
2018-03-25T11:29:20.229Z,988.10
2018-03-25T11:30:20.279Z,988.07
2018-03-25T11:31:20.330Z,988.03
2018-03-25T11:32:20.380Z,988.11
2018-03-25T11:33:20.430Z,988.27
2018-03-25T11:34:20.481Z,988.22
2018-03-25T11:35:20.544Z,988.19
2018-03-25T11:36:20.582Z,988.15
2018-03-25T11:37:20.631Z,988.20
2018-03-25T11:38:20.683Z,988.22
2018-03-25T11:39:20.736Z,988.16
2018-03-25T11:40:20.785Z,988.07
2018-03-25T11:41:20.834Z,988.18
2018-03-25T11:42:20.885Z,988.15
2018-03-25T11:43:20.937Z,988.14
2018-03-25T11:44:20.985Z,988.22
2018-03-25T11:45:21.035Z,988.24
2018-03-25T11:46:21.087Z,988.18
2018-03-25T11:47:21.136Z,988.29
2018-03-25T11:48:21.189Z,988.23
2018-03-25T11:49:21.238Z,988.23
2018-03-25T11:50:21.289Z,988.13
2018-03-25T11:51:21.339Z,988.11
2018-03-25T11:52:21.391Z,988.03
2018-03-25T11:53:21.440Z,988.05
2018-03-25T11:54:21.493Z,988.16
2018-03-25T11:55:21.544Z,988.26
2018-03-25T11:56:21.593Z,988.26
2018-03-25T11:57:21.643Z,988.26
2018-03-25T11:58:21.694Z,988.34
2018-03-25T11:59:21.746Z,988.35
2018-03-25T12:00:21.797Z,988.35
2018-03-25T12:01:21.846Z,988.36
2018-03-25T12:02:21.897Z,988.40
2018-03-25T12:03:21.949Z,988.34
2018-03-25T12:04:22.000Z,988.41
2018-03-25T12:05:22.050Z,988.39
2018-03-25T12:06:22.100Z,988.36
2018-03-25T12:07:22.155Z,988.39
2018-03-25T12:08:22.207Z,988.42
2018-03-25T12:09:22.256Z,988.42
2018-03-25T12:10:22.308Z,988.46
2018-03-25T12:11:22.360Z,988.43
2018-03-25T12:12:22.412Z,988.42
2018-03-25T12:13:22.463Z,988.45
2018-03-25T12:14:22.515Z,988.43
2018-03-25T12:15:22.567Z,988.50
2018-03-25T12:16:22.638Z,988.47
2018-03-25T12:17:22.675Z,988.51
2018-03-25T12:18:22.724Z,988.46
2018-03-25T12:19:22.776Z,988.45
2018-03-25T12:20:22.854Z,988.49
2018-03-25T12:21:22.881Z,988.49
2018-03-25T12:22:22.933Z,988.43
2018-03-25T12:23:22.986Z,988.40
2018-03-25T12:24:23.039Z,988.36
2018-03-25T12:25:23.090Z,988.38
2018-03-25T12:26:23.144Z,988.40
2018-03-25T12:27:23.197Z,988.38
2018-03-25T12:28:23.249Z,988.44
2018-03-25T12:29:23.302Z,988.43